createdAt,value
2024-01-04T00:02:48.298Z,4.00
2024-01-04T00:06:37.899Z,2.60
2024-01-04T00:10:27.695Z,2.50
2024-01-04T00:14:17.218Z,3.70
2024-01-04T00:18:07.019Z,4.50
2024-01-04T00:21:57.558Z,3.50
2024-01-04T00:25:47.294Z,1.80
2024-01-04T00:29:37.073Z,4.30
2024-01-04T00:33:26.824Z,3.50
2024-01-04T00:37:16.440Z,4.00
2024-01-04T00:40:54.400Z,4.00
2024-01-04T00:44:43.731Z,3.60
2024-01-04T00:48:33.549Z,3.90
2024-01-04T00:52:23.353Z,4.50
2024-01-04T00:56:12.932Z,3.90
2024-01-04T01:00:02.685Z,3.20
2024-01-04T01:03:52.476Z,2.50
2024-01-04T01:07:33.123Z,6.80
2024-01-04T01:11:22.768Z,4.10
2024-01-04T01:15:12.594Z,5.40
2024-01-04T01:19:02.461Z,8.90
2024-01-04T01:22:52.369Z,6.40
2024-01-04T01:26:41.916Z,5.40
2024-01-04T01:30:31.799Z,12.40
2024-01-04T01:34:24.243Z,5.50
2024-01-04T01:37:59.482Z,4.30
2024-01-04T01:41:41.982Z,3.50
2024-01-04T01:45:31.575Z,3.20
2024-01-04T01:49:21.944Z,4.00
2024-01-04T01:53:00.541Z,4.20
2024-01-04T01:56:50.048Z,3.70
2024-01-04T02:00:39.617Z,1.70
2024-01-04T02:04:29.246Z,2.40
2024-01-04T02:08:19.030Z,2.70
2024-01-04T02:12:09.164Z,3.20
2024-01-04T02:15:58.950Z,2.90
2024-01-04T02:19:48.752Z,4.50
2024-01-04T02:23:38.551Z,4.20
2024-01-04T02:27:28.265Z,2.70
2024-01-04T02:31:17.942Z,3.90
2024-01-04T02:35:07.723Z,2.40
2024-01-04T02:38:56.343Z,3.10
2024-01-04T02:42:46.124Z,1.80
2024-01-04T02:46:35.757Z,2.20
2024-01-04T02:50:25.492Z,2.40
2024-01-04T02:54:08.347Z,2.60
2024-01-04T02:57:49.012Z,1.90
2024-01-04T03:01:37.409Z,1.90
2024-01-04T03:05:27.114Z,2.40
2024-01-04T03:09:17.108Z,2.10
2024-01-04T03:13:06.923Z,2.10
2024-01-04T03:16:56.503Z,2.50
2024-01-04T03:20:46.326Z,2.50
2024-01-04T03:24:35.912Z,1.80
2024-01-04T03:28:25.719Z,2.20
2024-01-04T03:32:15.291Z,3.00
2024-01-04T03:36:05.118Z,2.30
2024-01-04T03:39:54.621Z,2.10
2024-01-04T03:43:44.365Z,2.10
2024-01-04T03:47:34.107Z,2.70
2024-01-04T03:51:23.767Z,1.50
2024-01-04T03:55:13.434Z,1.80
2024-01-04T03:58:53.736Z,2.80
2024-01-04T04:06:15.586Z,3.40
2024-01-04T04:10:05.365Z,3.10
2024-01-04T04:13:54.983Z,5.40
2024-01-04T04:17:35.909Z,7.80
2024-01-04T04:21:25.694Z,7.80
2024-01-04T04:25:15.401Z,4.00
2024-01-04T04:29:05.153Z,6.60
2024-01-04T04:32:54.941Z,5.30
2024-01-04T04:36:43.136Z,10.10
2024-01-04T04:40:32.488Z,8.30
2024-01-04T04:44:22.021Z,8.70
2024-01-04T04:48:11.919Z,9.60
2024-01-04T04:52:01.631Z,13.20
2024-01-04T04:55:51.311Z,9.20
2024-01-04T04:59:41.113Z,9.50
2024-01-04T05:03:31.022Z,19.70
2024-01-04T05:07:20.735Z,11.60
2024-01-04T05:11:10.506Z,8.10
2024-01-04T05:15:00.325Z,17.40
2024-01-04T05:18:50.395Z,15.90
2024-01-04T05:22:39.982Z,19.60
2024-01-04T05:26:29.558Z,11.30
2024-01-04T05:30:19.443Z,11.60
2024-01-04T05:34:09.317Z,11.70
2024-01-04T05:37:58.920Z,12.60
2024-01-04T05:41:41.237Z,22.30
2024-01-04T05:45:30.802Z,30.40
2024-01-04T05:49:20.774Z,21.10
2024-01-04T05:53:10.524Z,17.20
2024-01-04T05:56:58.952Z,12.90
2024-01-04T06:00:49.334Z,13.80
2024-01-04T06:04:31.849Z,11.60
2024-01-04T06:08:21.640Z,17.90
2024-01-04T06:12:14.094Z,16.80
2024-01-04T06:19:33.079Z,21.60
2024-01-04T06:23:22.790Z,14.60
2024-01-04T06:27:12.731Z,18.30
2024-01-04T06:31:02.494Z,12.90
2024-01-04T06:34:52.212Z,14.80
2024-01-04T06:38:42.097Z,17.50
2024-01-04T06:42:31.834Z,14.40
2024-01-04T06:46:14.508Z,15.10
2024-01-04T06:50:11.822Z,10.70
2024-01-04T06:54:07.642Z,9.90
2024-01-04T06:57:57.326Z,12.90
2024-01-04T07:01:47.022Z,13.30
2024-01-04T07:05:36.645Z,51.70
2024-01-04T07:09:26.481Z,10.90
2024-01-04T07:13:16.107Z,12.80
2024-01-04T07:17:02.623Z,12.50
2024-01-04T07:20:45.058Z,16.60
2024-01-04T07:24:27.400Z,12.60
2024-01-04T07:28:16.979Z,16.30
2024-01-04T07:31:56.584Z,17.10
2024-01-04T07:35:46.357Z,16.60
2024-01-04T07:39:35.926Z,72.00
2024-01-04T07:43:18.915Z,39.50
2024-01-04T07:47:08.598Z,29.80
2024-01-04T07:50:43.383Z,32.30
2024-01-04T07:54:26.685Z,27.40
2024-01-04T07:58:16.651Z,23.20
2024-01-04T08:01:46.320Z,29.50
2024-01-04T08:05:27.313Z,38.10
2024-01-04T08:09:09.745Z,37.10
2024-01-04T08:12:59.368Z,28.70
2024-01-04T08:16:41.601Z,22.30
2024-01-04T08:20:31.159Z,20.90
2024-01-04T08:24:06.145Z,20.20
2024-01-04T08:27:55.343Z,34.90
2024-01-04T08:31:44.171Z,36.10
2024-01-04T08:35:26.371Z,17.30
2024-01-04T08:39:16.315Z,16.40
2024-01-04T08:42:58.586Z,60.70
2024-01-04T08:46:43.690Z,77.50
2024-01-04T08:50:07.621Z,64.70
2024-01-04T08:53:55.831Z,40.40
2024-01-04T08:57:27.730Z,28.50
2024-01-04T09:00:40.486Z,23.70
2024-01-04T09:03:57.607Z,21.30
2024-01-04T09:07:47.198Z,59.90
2024-01-04T09:11:29.400Z,13.90
2024-01-04T09:15:19.176Z,12.30
2024-01-04T09:21:55.791Z,17.90
2024-01-04T09:25:45.311Z,19.80
2024-01-04T09:29:34.904Z,7.40
2024-01-04T09:33:24.676Z,2.70
2024-01-04T09:37:14.384Z,1.70
2024-01-04T09:41:03.604Z,1.80
2024-01-04T09:44:49.611Z,1.30
2024-01-04T09:48:39.383Z,1.50
2024-01-04T09:52:24.609Z,1.10
2024-01-04T09:56:14.085Z,0.90
2024-01-04T10:00:03.684Z,1.20
2024-01-04T10:03:46.158Z,1.20
2024-01-04T10:07:35.974Z,1.90
2024-01-04T10:11:18.146Z,1.50
2024-01-04T10:15:07.300Z,1.70
2024-01-04T10:18:49.643Z,1.50
2024-01-04T10:22:44.961Z,1.50
2024-01-04T10:26:34.488Z,1.80
2024-01-04T10:30:24.165Z,1.50
2024-01-04T10:34:07.243Z,1.80
2024-01-04T10:37:56.842Z,1.60
2024-01-04T10:41:36.539Z,1.40
2024-01-04T10:45:22.105Z,0.60
2024-01-04T10:49:03.787Z,1.10
2024-01-04T10:52:53.406Z,1.50
2024-01-04T10:56:35.825Z,0.80
2024-01-04T11:00:18.398Z,1.90
2024-01-04T11:04:04.142Z,2.00
2024-01-04T11:07:52.371Z,1.80
2024-01-04T11:11:41.888Z,1.90
2024-01-04T11:15:31.613Z,1.30
2024-01-04T11:19:24.140Z,1.60
2024-01-04T11:27:09.988Z,1.80
2024-01-04T11:30:59.700Z,2.10
2024-01-04T11:34:43.215Z,1.90
2024-01-04T11:38:23.794Z,1.90
2024-01-04T11:42:12.956Z,2.60
2024-01-04T11:46:02.699Z,2.60
2024-01-04T11:49:59.585Z,1.80
2024-01-04T11:53:58.630Z,2.70
2024-01-04T12:01:17.573Z,3.30
2024-01-04T12:05:00.682Z,2.00
2024-01-04T12:08:28.203Z,2.90
2024-01-04T12:12:17.728Z,3.00
2024-01-04T12:16:00.132Z,1.80
2024-01-04T12:19:35.289Z,4.90
2024-01-04T12:23:25.166Z,2.80
2024-01-04T12:27:14.826Z,2.00
2024-01-04T12:30:58.027Z,2.90
2024-01-04T12:34:50.497Z,2.70
2024-01-04T12:38:45.830Z,3.20
2024-01-04T12:42:35.551Z,3.40
2024-01-04T12:46:17.781Z,3.30
2024-01-04T12:49:59.928Z,4.20
2024-01-04T12:53:48.619Z,5.00
2024-01-04T12:57:08.689Z,2.90
2024-01-04T13:00:58.601Z,5.00
2024-01-04T13:04:41.806Z,3.30
2024-01-04T13:08:31.385Z,4.20
2024-01-04T13:13:06.943Z,3.30
2024-01-04T13:16:31.389Z,3.80
2024-01-04T13:20:20.997Z,5.00
2024-01-04T13:24:04.005Z,3.70
2024-01-04T13:27:38.842Z,4.30
2024-01-04T13:31:28.382Z,2.80
2024-01-04T13:35:17.962Z,2.40
2024-01-04T13:39:07.764Z,4.00
2024-01-04T13:42:45.434Z,2.90
2024-01-04T13:45:14.813Z,4.10
2024-01-04T13:48:16.960Z,3.50
2024-01-04T13:55:02.200Z,4.10
2024-01-04T13:57:57.653Z,4.60
2024-01-04T14:00:51.044Z,3.30
2024-01-04T14:03:32.674Z,3.80
2024-01-04T14:06:21.924Z,4.20
2024-01-04T14:10:01.582Z,5.70
2024-01-04T14:13:51.257Z,5.20
2024-01-04T14:17:38.044Z,5.80
2024-01-04T14:21:11.522Z,6.40
2024-01-04T14:24:42.432Z,4.90
2024-01-04T14:28:32.011Z,5.20
2024-01-04T14:32:13.251Z,5.50
2024-01-04T14:35:17.996Z,10.00
2024-01-04T14:38:56.523Z,19.40
2024-01-04T14:42:14.456Z,8.50
2024-01-04T14:46:04.242Z,5.50
2024-01-04T14:48:48.504Z,6.80
2024-01-04T14:52:04.046Z,5.90
2024-01-04T14:55:29.098Z,4.80
2024-01-04T14:58:47.654Z,5.70
2024-01-04T15:01:53.731Z,3.90
2024-01-04T15:05:34.804Z,4.70
2024-01-04T15:09:06.005Z,5.90
2024-01-04T15:12:29.746Z,6.00
2024-01-04T15:16:08.398Z,4.90
2024-01-04T15:19:25.013Z,7.70
2024-01-04T15:22:26.389Z,7.80
2024-01-04T15:25:31.612Z,6.30
2024-01-04T15:28:38.696Z,8.80
2024-01-04T15:31:53.989Z,10.90
2024-01-04T15:35:43.690Z,8.30
2024-01-04T15:39:32.142Z,4.10
2024-01-04T15:43:21.568Z,3.20
2024-01-04T15:47:11.215Z,4.80
2024-01-04T15:51:00.781Z,4.10
2024-01-04T15:54:39.201Z,14.50
2024-01-04T15:58:18.759Z,6.90
2024-01-04T16:02:00.387Z,3.80
2024-01-04T16:05:50.408Z,4.90
2024-01-04T16:09:08.314Z,6.40
2024-01-04T16:12:05.710Z,5.80
2024-01-04T16:15:22.524Z,8.80
2024-01-04T16:18:17.191Z,6.00
2024-01-04T16:21:29.492Z,5.20
2024-01-04T16:24:19.154Z,4.10
2024-01-04T16:28:08.824Z,4.70
2024-01-04T16:31:41.580Z,6.60
2024-01-04T16:35:31.236Z,4.70
2024-01-04T16:39:13.319Z,7.10
2024-01-04T16:43:02.447Z,6.20
2024-01-04T16:46:42.012Z,6.00
2024-01-04T16:50:02.236Z,3.90
2024-01-04T16:53:10.464Z,7.30
2024-01-04T16:55:39.367Z,4.80
2024-01-04T16:58:51.198Z,9.00
2024-01-04T17:02:21.769Z,6.90
2024-01-04T17:06:02.003Z,5.00
2024-01-04T17:09:41.326Z,6.00
2024-01-04T17:13:31.258Z,8.50
2024-01-04T17:17:21.040Z,7.00
2024-01-04T17:21:11.214Z,7.20
2024-01-04T17:24:03.259Z,6.80
2024-01-04T17:26:32.322Z,7.10
2024-01-04T17:29:28.075Z,15.70
2024-01-04T17:32:46.478Z,13.00
2024-01-04T17:36:24.850Z,5.40
2024-01-04T17:39:32.285Z,5.10
2024-01-04T17:43:15.491Z,7.90
2024-01-04T17:46:25.282Z,14.00
2024-01-04T17:49:55.838Z,14.80
2024-01-04T17:53:45.703Z,11.20
2024-01-04T17:57:35.544Z,12.20
2024-01-04T18:01:23.944Z,6.70
2024-01-04T18:05:13.584Z,4.60
2024-01-04T18:08:18.920Z,2.90
2024-01-04T18:12:02.287Z,4.40
2024-01-04T18:14:51.371Z,3.20
2024-01-04T18:18:23.412Z,4.70
2024-01-04T18:21:33.610Z,3.70
2024-01-04T18:25:13.253Z,5.00
2024-01-04T18:28:45.309Z,5.30
2024-01-04T18:32:17.228Z,5.60
2024-01-04T18:35:49.679Z,5.90
2024-01-04T18:39:19.962Z,3.10
2024-01-04T18:43:09.522Z,6.40
2024-01-04T18:46:59.040Z,6.80
2024-01-04T18:50:48.965Z,5.60
2024-01-04T18:54:38.628Z,6.30
2024-01-04T18:58:29.375Z,5.20
2024-01-04T19:02:02.115Z,2.30
2024-01-04T19:05:50.688Z,2.40
2024-01-04T19:09:40.456Z,3.30
2024-01-04T19:13:32.855Z,2.10
2024-01-04T19:16:10.162Z,2.80
2024-01-04T19:22:35.261Z,1.80
2024-01-04T19:26:24.954Z,2.80
2024-01-04T19:29:54.276Z,2.70
2024-01-04T19:33:23.914Z,2.50
2024-01-04T19:36:54.543Z,2.70
2024-01-04T19:40:33.258Z,1.90
2024-01-04T19:43:37.707Z,2.40
2024-01-04T19:46:57.228Z,2.30
2024-01-04T19:50:42.363Z,2.00
2024-01-04T19:54:14.941Z,2.60
2024-01-04T19:57:52.619Z,2.70
2024-01-04T20:00:22.057Z,2.30
2024-01-04T20:03:43.288Z,2.20
2024-01-04T20:07:32.837Z,2.20
2024-01-04T20:11:22.386Z,2.30
2024-01-04T20:15:12.653Z,2.70
2024-01-04T20:19:02.399Z,1.60
2024-01-04T20:22:52.025Z,2.10
2024-01-04T20:26:41.881Z,1.70
2024-01-04T20:30:24.430Z,2.20
2024-01-04T20:34:06.881Z,2.10
2024-01-04T20:37:48.902Z,1.80
2024-01-04T20:41:41.301Z,2.00
2024-01-04T20:45:31.071Z,1.50
2024-01-04T20:49:20.948Z,1.90
2024-01-04T20:52:52.843Z,2.20
2024-01-04T20:56:42.486Z,1.90
2024-01-04T21:00:32.388Z,2.10
2024-01-04T21:04:11.040Z,2.30
2024-01-04T21:08:00.821Z,3.10
2024-01-04T21:11:50.410Z,2.10
2024-01-04T21:15:39.990Z,1.70
2024-01-04T21:19:19.934Z,3.10
2024-01-04T21:22:42.596Z,2.40
2024-01-04T21:26:12.203Z,4.30
2024-01-04T21:29:38.138Z,5.40
2024-01-04T21:33:28.046Z,4.70
2024-01-04T21:37:17.834Z,7.20
2024-01-04T21:41:06.152Z,9.10
2024-01-04T21:44:49.021Z,3.70
2024-01-04T21:48:18.665Z,16.20
2024-01-04T21:52:08.734Z,12.70
2024-01-04T21:55:38.354Z,14.20
2024-01-04T21:59:28.140Z,14.60
2024-01-04T22:03:00.531Z,5.80
2024-01-04T22:06:33.385Z,5.10
2024-01-04T22:10:28.130Z,7.40
2024-01-04T22:14:02.059Z,3.80
2024-01-04T22:16:54.247Z,4.20
2024-01-04T22:19:54.475Z,11.90
2024-01-04T22:23:07.705Z,4.00
2024-01-04T22:26:35.584Z,1.90
2024-01-04T22:29:57.552Z,3.50
2024-01-04T22:33:47.329Z,1.80
2024-01-04T22:37:37.474Z,1.80
2024-01-04T22:41:27.130Z,1.00
2024-01-04T22:44:38.291Z,1.60
2024-01-04T22:48:27.988Z,1.50
2024-01-04T22:52:17.756Z,1.50
2024-01-04T22:56:07.537Z,1.40
2024-01-04T22:59:58.491Z,1.20
2024-01-04T23:03:49.526Z,1.50
2024-01-04T23:07:39.534Z,1.40
2024-01-04T23:11:29.254Z,1.20
2024-01-04T23:15:18.704Z,1.90
2024-01-04T23:19:08.293Z,1.70
2024-01-04T23:22:58.107Z,1.60
2024-01-04T23:26:40.602Z,1.30
2024-01-04T23:30:30.398Z,1.60
2024-01-04T23:34:20.126Z,1.50
2024-01-04T23:38:09.929Z,1.40
2024-01-04T23:41:59.585Z,1.50
2024-01-04T23:45:49.188Z,1.80
2024-01-04T23:49:39.016Z,2.00
2024-01-04T23:53:28.753Z,1.00
2024-01-04T23:57:18.670Z,1.20
